Time;durP1;ratioP1;P1;durP2;ratioP2;P2;SDS_P1;SDS_P2;PMS_P1;PMS_P2;Temp;Humidity;BMP_temperature;BMP_pressure;BME280_temperature;BME280_humidity;BME280_pressure;Samples;Min_cycle;Max_cycle;Signal;HPM_P1;HPM_P2
2021/09/23 00:02:36;;;;;;;1.50;1.40;;;21.70;99.90;;;;;;5062551;28;20444;-27
2021/09/23 00:05:08;;;;;;;1.77;1.67;;;21.50;99.90;;;;;;5052390;28;20480;-26
2021/09/23 00:07:40;;;;;;;2.20;1.43;;;21.50;99.90;;;;;;5045904;28;20431;-26
2021/09/23 00:10:13;;;;;;;1.90;1.47;;;21.30;99.90;;;;;;5046202;28;20457;-26
2021/09/23 00:12:44;;;;;;;1.80;1.67;;;21.20;99.90;;;;;;5058531;28;20503;-27
2021/09/23 00:15:17;;;;;;;1.73;1.63;;;21.10;99.90;;;;;;5055254;28;20537;-27
2021/09/23 00:17:53;;;;;;;2.20;1.80;;;21.00;99.90;;;;;;5053854;28;20523;-27
2021/09/23 00:20:25;;;;;;;2.07;1.87;;;21.00;99.90;;;;;;5046806;28;20464;-27
2021/09/23 00:22:56;;;;;;;1.70;1.60;;;20.80;99.90;;;;;;5064290;28;20463;-27
2021/09/23 00:25:27;;;;;;;2.37;2.17;;;20.60;99.90;;;;;;5047332;28;20457;-27
2021/09/23 00:27:59;;;;;;;3.00;2.03;;;20.60;99.90;;;;;;5059562;28;20808;-27
2021/09/23 00:30:30;;;;;;;2.23;2.10;;;20.50;99.90;;;;;;5056325;28;20476;-27
2021/09/23 00:33:03;;;;;;;2.07;1.70;;;20.30;99.90;;;;;;5069749;28;20483;-27
2021/09/23 00:35:34;;;;;;;2.07;1.70;;;20.10;99.90;;;;;;5061333;28;20514;-27
2021/09/23 00:38:05;;;;;;;1.93;1.83;;;19.90;99.90;;;;;;5046190;28;20511;-27
2021/09/23 00:40:36;;;;;;;4.20;2.20;;;19.90;99.90;;;;;;5052453;28;20455;-27
2021/09/23 00:43:07;;;;;;;2.43;2.23;;;19.80;99.90;;;;;;5053313;28;20427;-27
2021/09/23 00:45:38;;;;;;;3.37;2.80;;;19.70;99.90;;;;;;5059973;28;20418;-27
2021/09/23 00:48:11;;;;;;;3.00;2.77;;;19.60;99.90;;;;;;5064015;28;20408;-27
2021/09/23 00:50:43;;;;;;;3.50;2.53;;;19.60;99.90;;;;;;5065069;28;20452;-26
2021/09/23 00:53:19;;;;;;;3.93;2.40;;;19.50;99.90;;;;;;5067836;28;20496;-27
2021/09/23 00:55:51;;;;;;;3.00;2.70;;;19.50;99.90;;;;;;5044040;28;20462;-27
2021/09/23 00:58:22;;;;;;;2.87;2.37;;;19.60;99.90;;;;;;5044389;28;20876;-27
2021/09/23 01:00:53;;;;;;;2.77;2.57;;;19.60;99.90;;;;;;5044906;28;20453;-27
2021/09/23 01:03:26;;;;;;;2.87;2.67;;;19.70;99.90;;;;;;5056585;28;20445;-27
2021/09/23 01:05:57;;;;;;;3.60;2.50;;;19.70;99.90;;;;;;5058808;28;20448;-27
2021/09/23 01:08:28;;;;;;;2.00;1.80;;;19.70;99.90;;;;;;5064167;28;20450;-27
2021/09/23 01:10:59;;;;;;;2.57;2.37;;;19.70;99.90;;;;;;5064473;28;20456;-27
2021/09/23 01:13:30;;;;;;;4.47;2.50;;;19.70;99.90;;;;;;5072251;28;20491;-27
2021/09/23 01:16:01;;;;;;;1.93;1.83;;;19.70;99.90;;;;;;5083411;28;20482;-26
2021/09/23 01:18:34;;;;;;;2.70;2.50;;;19.80;99.90;;;;;;5083385;28;20503;-26
2021/09/23 01:21:09;;;;;;;2.50;2.20;;;19.80;99.90;;;;;;5084213;28;20488;-26
2021/09/23 01:23:40;;;;;;;2.20;2.00;;;19.70;99.90;;;;;;5073995;28;20505;-26
2021/09/23 01:26:13;;;;;;;3.87;2.90;;;19.70;99.90;;;;;;5063277;28;20451;-26
2021/09/23 01:28:44;;;;;;;3.20;2.90;;;19.70;99.90;;;;;;5063397;28;20831;-26
2021/09/23 01:31:15;;;;;;;3.50;2.60;;;19.70;99.90;;;;;;5062525;28;20456;-26
2021/09/23 01:33:47;;;;;;;3.00;2.47;;;19.70;99.90;;;;;;5064106;28;20484;-26
2021/09/23 01:36:19;;;;;;;2.33;2.13;;;19.70;99.90;;;;;;5062436;28;20500;-26
2021/09/23 01:38:53;;;;;;;4.60;2.37;;;19.60;99.90;;;;;;5063289;28;20451;-26
2021/09/23 01:41:24;;;;;;;2.40;2.07;;;19.50;99.90;;;;;;5063650;28;20450;-26
2021/09/23 01:43:55;;;;;;;4.60;2.10;;;19.60;99.90;;;;;;5061557;28;20431;-26
2021/09/23 01:46:26;;;;;;;2.93;2.30;;;19.60;99.90;;;;;;5041499;28;20408;-27
2021/09/23 01:48:57;;;;;;;2.07;1.97;;;19.50;99.90;;;;;;5044043;28;20460;-26
2021/09/23 01:51:30;;;;;;;3.63;2.50;;;19.40;99.90;;;;;;5043408;28;20487;-27
2021/09/23 01:54:01;;;;;;;2.30;2.10;;;19.30;99.90;;;;;;5067382;28;20462;-27
2021/09/23 01:56:32;;;;;;;2.37;1.80;;;19.10;99.90;;;;;;5082992;28;20430;-27
2021/09/23 01:59:03;;;;;;;2.60;2.20;;;19.10;99.90;;;;;;5083803;28;20444;-26
2021/09/23 02:01:34;;;;;;;2.30;2.10;;;18.90;99.90;;;;;;5082407;28;20442;-27
2021/09/23 02:04:05;;;;;;;2.73;2.53;;;18.80;99.90;;;;;;5071049;28;20448;-26
2021/09/23 02:06:38;;;;;;;3.60;2.63;;;18.60;99.90;;;;;;5073953;28;20913;-26
2021/09/23 02:09:09;;;;;;;2.47;2.10;;;18.50;99.90;;;;;;5063053;28;20423;-26
2021/09/23 02:11:40;;;;;;;3.63;2.53;;;18.30;99.90;;;;;;5062316;28;20468;-27
2021/09/23 02:14:11;;;;;;;2.27;2.07;;;18.10;99.90;;;;;;5062256;28;20526;-27
2021/09/23 02:16:43;;;;;;;4.03;2.87;;;18.00;99.90;;;;;;5060799;28;20452;-26
2021/09/23 02:19:15;;;;;;;2.60;2.40;;;17.90;99.90;;;;;;5063098;28;20432;-26
2021/09/23 02:21:48;;;;;;;3.00;2.67;;;17.80;99.90;;;;;;5061482;28;20419;-27
2021/09/23 02:24:19;;;;;;;3.07;2.77;;;17.70;99.90;;;;;;5055249;28;20451;-27
2021/09/23 02:26:50;;;;;;;3.83;3.43;;;17.70;99.90;;;;;;5061810;28;20444;-27
2021/09/23 02:29:21;;;;;;;3.50;2.90;;;17.70;99.90;;;;;;5062821;28;20423;-27
2021/09/23 02:31:52;;;;;;;4.00;3.60;;;17.60;99.90;;;;;;5062384;28;20443;-26
2021/09/23 02:34:23;;;;;;;3.23;2.97;;;17.70;99.90;;;;;;5062898;28;20492;-27
2021/09/23 02:36:55;;;;;;;3.73;2.90;;;17.70;99.90;;;;;;5061345;28;20824;-27
2021/09/23 02:39:26;;;;;;;3.57;3.27;;;17.80;99.90;;;;;;5063325;28;20448;-27
2021/09/23 02:41:57;;;;;;;5.40;4.10;;;17.90;99.90;;;;;;5062832;28;20460;-27
2021/09/23 02:44:28;;;;;;;3.50;3.20;;;17.90;99.90;;;;;;5062939;28;20452;-27
2021/09/23 02:46:59;;;;;;;3.63;3.33;;;18.00;99.90;;;;;;5061690;28;20472;-27
2021/09/23 02:49:30;;;;;;;5.10;4.70;;;18.00;99.90;;;;;;5063013;28;20518;-27
2021/09/23 02:52:03;;;;;;;4.60;4.30;;;18.10;99.90;;;;;;5062579;28;20452;-27
2021/09/23 02:54:34;;;;;;;5.10;4.60;;;18.10;99.90;;;;;;5062800;28;20557;-27
2021/09/23 02:57:05;;;;;;;4.30;4.00;;;18.10;99.90;;;;;;5061400;28;20452;-27
2021/09/23 02:59:36;;;;;;;4.07;3.70;;;18.20;99.90;;;;;;5062862;28;20515;-27
2021/09/23 03:02:07;;;;;;;4.13;3.80;;;18.20;99.90;;;;;;5061928;28;20524;-27
2021/09/23 03:04:39;;;;;;;3.70;3.30;;;18.20;99.90;;;;;;5058116;28;20955;-27
2021/09/23 03:07:11;;;;;;;4.27;3.60;;;18.20;99.90;;;;;;5061603;28;20492;-26
2021/09/23 03:09:42;;;;;;;3.47;3.17;;;18.20;99.90;;;;;;5062731;28;20480;-27
2021/09/23 03:12:13;;;;;;;2.70;2.50;;;18.20;99.90;;;;;;5051620;28;20923;-27
2021/09/23 03:14:45;;;;;;;4.43;2.87;;;18.20;99.90;;;;;;5042262;28;20560;-27
2021/09/23 03:17:16;;;;;;;3.33;2.97;;;18.20;99.90;;;;;;5041327;28;20449;-27
2021/09/23 03:19:47;;;;;;;2.60;2.20;;;18.20;99.90;;;;;;5046083;28;20504;-27
2021/09/23 03:22:20;;;;;;;3.60;2.87;;;18.20;99.90;;;;;;5042209;28;20760;-26
2021/09/23 03:24:52;;;;;;;3.83;3.30;;;18.20;99.90;;;;;;5042512;28;20453;-27
2021/09/23 03:27:23;;;;;;;3.30;2.90;;;18.20;99.90;;;;;;5041829;28;20450;-27
2021/09/23 03:29:54;;;;;;;5.13;3.60;;;18.20;99.90;;;;;;5042384;28;20457;-27
2021/09/23 03:32:25;;;;;;;4.23;3.40;;;18.20;99.90;;;;;;5041647;28;20480;-27
2021/09/23 03:34:56;;;;;;;3.97;3.10;;;18.10;99.90;;;;;;5042462;28;20554;-28
2021/09/23 03:37:29;;;;;;;3.20;2.90;;;18.20;99.90;;;;;;5041662;28;20420;-26
2021/09/23 03:40:00;;;;;;;7.50;3.90;;;18.10;99.90;;;;;;5047528;28;20427;-26
2021/09/23 03:42:31;;;;;;;3.60;3.30;;;18.10;99.90;;;;;;5059850;28;20463;-26
2021/09/23 03:45:02;;;;;;;3.30;3.00;;;18.10;99.90;;;;;;5051773;28;20428;-27
2021/09/23 03:47:33;;;;;;;4.87;3.60;;;18.00;99.90;;;;;;5046434;28;20432;-27
2021/09/23 03:50:04;;;;;;;4.17;3.40;;;18.00;99.90;;;;;;5042129;28;20454;-27
2021/09/23 03:52:37;;;;;;;4.40;3.47;;;18.00;99.90;;;;;;5046799;28;20463;-27
2021/09/23 03:55:09;;;;;;;7.00;4.13;;;18.10;99.90;;;;;;5041917;28;20489;-27
2021/09/23 03:57:40;;;;;;;4.00;3.60;;;18.10;99.90;;;;;;5046782;28;20444;-27
2021/09/23 04:00:12;;;;;;;4.80;3.10;;;18.10;99.90;;;;;;5057547;28;20550;-27
2021/09/23 04:02:43;;;;;;;3.90;3.50;;;18.00;99.90;;;;;;5048218;28;20770;-27
2021/09/23 04:05:15;;;;;;;3.90;3.30;;;18.00;99.90;;;;;;5045481;28;20499;-27
2021/09/23 04:07:47;;;;;;;4.10;3.70;;;18.00;99.90;;;;;;5053667;28;20480;-27
2021/09/23 04:10:18;;;;;;;6.10;5.50;;;18.00;99.90;;;;;;5045531;28;20449;-27
2021/09/23 04:12:52;;;;;;;6.20;5.70;;;18.00;99.90;;;;;;5061222;28;20448;-27
2021/09/23 04:15:23;;;;;;;7.03;6.33;;;18.00;99.90;;;;;;5065454;28;20652;-27
2021/09/23 04:17:55;;;;;;;10.80;5.67;;;18.00;99.90;;;;;;5064329;28;20423;-27
2021/09/23 04:20:26;;;;;;;5.07;3.50;;;18.00;99.90;;;;;;5055020;28;20446;-27
2021/09/23 04:22:59;;;;;;;5.83;3.80;;;18.00;99.90;;;;;;5062927;28;20419;-27
2021/09/23 04:25:30;;;;;;;4.20;3.80;;;18.10;99.90;;;;;;5060553;28;20452;-27
2021/09/23 04:28:01;;;;;;;4.67;3.60;;;18.20;99.90;;;;;;5065043;28;20445;-27
2021/09/23 04:30:32;;;;;;;4.33;3.53;;;18.20;99.90;;;;;;5065248;28;20527;-28
2021/09/23 04:33:03;;;;;;;3.93;3.53;;;18.10;99.90;;;;;;5064456;28;20526;-27
2021/09/23 04:35:34;;;;;;;4.63;3.47;;;18.10;99.90;;;;;;5065475;28;20772;-27
2021/09/23 04:38:07;;;;;;;5.57;3.67;;;18.10;99.90;;;;;;5064716;28;20415;-27
2021/09/23 04:40:37;;;;;;;5.20;4.20;;;18.10;99.90;;;;;;5062717;28;20526;-27
2021/09/23 04:43:08;;;;;;;5.70;3.37;;;18.10;99.90;;;;;;5044906;28;20450;-27
2021/09/23 04:45:39;;;;;;;4.20;3.80;;;18.20;99.90;;;;;;5045536;28;20512;-27
2021/09/23 04:48:10;;;;;;;4.53;3.80;;;18.20;99.90;;;;;;5044166;28;20813;-27
2021/09/23 04:50:41;;;;;;;3.90;3.60;;;18.20;99.90;;;;;;5045209;28;21014;-27
2021/09/23 04:53:14;;;;;;;9.60;4.60;;;18.20;99.90;;;;;;5048926;28;20431;-27
2021/09/23 04:55:45;;;;;;;5.03;4.27;;;18.30;99.90;;;;;;5064988;28;21195;-27
2021/09/23 04:58:16;;;;;;;4.37;3.70;;;18.20;99.90;;;;;;5064430;28;20426;-27
2021/09/23 05:00:47;;;;;;;4.53;3.90;;;18.20;99.90;;;;;;5065257;28;20499;-27
2021/09/23 05:03:19;;;;;;;3.77;3.47;;;18.20;99.90;;;;;;5063842;28;20511;-27
2021/09/23 05:05:50;;;;;;;6.37;4.40;;;18.20;99.90;;;;;;5064695;28;20463;-27
2021/09/23 05:08:23;;;;;;;5.37;3.57;;;18.20;99.90;;;;;;5056470;28;20953;-27
2021/09/23 05:10:54;;;;;;;7.90;4.40;;;18.20;99.90;;;;;;5044675;28;20492;-27
2021/09/23 05:13:25;;;;;;;6.13;3.90;;;18.20;99.90;;;;;;5044526;28;20416;-28
2021/09/23 05:15:56;;;;;;;5.23;3.83;;;18.10;99.90;;;;;;5064568;28;20492;-27
2021/09/23 05:18:28;;;;;;;5.17;4.00;;;18.10;99.90;;;;;;5062907;28;20498;-27
2021/09/23 05:20:59;;;;;;;5.67;3.90;;;18.20;99.90;;;;;;5056255;28;20561;-27
2021/09/23 05:23:32;;;;;;;4.83;3.30;;;18.10;99.90;;;;;;5044348;28;20450;-27
2021/09/23 05:26:03;;;;;;;4.47;4.07;;;18.10;99.90;;;;;;5055334;28;20427;-27
2021/09/23 05:28:34;;;;;;;4.60;3.70;;;18.20;99.90;;;;;;5063685;28;20490;-26
2021/09/23 05:31:05;;;;;;;4.20;3.80;;;18.10;99.90;;;;;;5055033;28;20416;-27
2021/09/23 05:33:36;;;;;;;3.80;3.30;;;18.10;99.90;;;;;;5045745;28;20445;-27
2021/09/23 05:36:07;;;;;;;7.20;4.37;;;18.10;99.90;;;;;;5044115;28;20489;-27
2021/09/23 05:38:40;;;;;;;4.10;3.20;;;18.10;99.90;;;;;;5043975;28;20823;-27
2021/09/23 05:41:11;;;;;;;4.53;3.50;;;18.00;99.90;;;;;;5050208;28;20511;-27
2021/09/23 05:43:42;;;;;;;4.70;3.50;;;18.00;99.90;;;;;;5043936;28;20404;-27
2021/09/23 05:46:13;;;;;;;4.50;3.70;;;17.90;99.90;;;;;;5043655;28;20441;-27
2021/09/23 05:48:44;;;;;;;3.73;3.40;;;17.90;99.90;;;;;;5043920;28;20967;-27
2021/09/23 05:51:15;;;;;;;5.97;3.30;;;17.80;99.90;;;;;;5043587;28;20484;-27
2021/09/23 05:53:48;;;;;;;5.43;3.80;;;17.80;99.90;;;;;;5044044;28;20461;-27
2021/09/23 05:56:19;;;;;;;5.70;3.77;;;17.80;99.90;;;;;;5044389;28;20555;-27
2021/09/23 05:58:50;;;;;;;5.47;3.53;;;17.70;99.90;;;;;;5044721;28;20445;-27
2021/09/23 06:01:21;;;;;;;4.70;4.13;;;17.70;99.90;;;;;;5043117;28;20893;-27
2021/09/23 06:03:57;;;;;;;4.50;3.90;;;17.60;99.90;;;;;;5043723;28;20427;-27
2021/09/23 06:06:28;;;;;;;4.10;3.40;;;17.50;99.90;;;;;;5054811;28;20464;-27
2021/09/23 06:09:00;;;;;;;5.20;4.27;;;17.40;99.90;;;;;;5063448;28;20427;-27
2021/09/23 06:11:33;;;;;;;5.83;4.13;;;17.30;99.90;;;;;;5056842;28;20513;-27
2021/09/23 06:14:04;;;;;;;5.87;4.17;;;17.20;99.90;;;;;;5043547;28;20467;-27
2021/09/23 06:16:36;;;;;;;8.53;4.20;;;17.10;99.90;;;;;;5052654;28;20520;-27
2021/09/23 06:19:07;;;;;;;5.17;3.90;;;17.00;99.90;;;;;;5062098;28;20456;-26
2021/09/23 06:21:39;;;;;;;5.90;3.87;;;16.80;99.90;;;;;;5061417;28;20452;-27
2021/09/23 06:24:11;;;;;;;7.13;4.70;;;16.70;99.90;;;;;;5063406;28;20452;-27
2021/09/23 06:26:42;;;;;;;10.13;3.83;;;16.60;99.90;;;;;;5060961;28;20513;-27
2021/09/23 06:29:13;;;;;;;6.60;4.40;;;16.50;99.90;;;;;;5047247;28;20777;-27
2021/09/23 06:31:44;;;;;;;5.87;4.00;;;16.40;99.90;;;;;;5050297;28;20470;-25
2021/09/23 06:34:15;;;;;;;6.10;5.00;;;16.30;99.90;;;;;;5062728;28;20506;-25
2021/09/23 06:36:46;;;;;;;5.83;4.47;;;16.10;99.90;;;;;;5062706;28;20492;-26
2021/09/23 06:39:19;;;;;;;7.27;4.70;;;16.00;99.90;;;;;;5062869;28;20455;-26
2021/09/23 06:41:50;;;;;;;7.43;4.50;;;16.00;99.90;;;;;;5056636;28;20452;-26
2021/09/23 06:44:21;;;;;;;8.03;5.27;;;15.90;99.90;;;;;;5056432;28;20487;-25
2021/09/23 06:46:52;;;;;;;6.07;4.20;;;15.80;99.90;;;;;;5042574;28;20430;-26
2021/09/23 06:49:25;;;;;;;6.03;4.43;;;15.70;99.90;;;;;;5053510;28;20492;-27
2021/09/23 06:51:57;;;;;;;5.90;4.87;;;15.70;99.90;;;;;;5042663;28;20444;-27
2021/09/23 06:54:30;;;;;;;5.13;4.47;;;15.60;99.90;;;;;;5043008;28;20456;-27
2021/09/23 06:57:00;;;;;;;5.77;4.30;;;15.60;99.90;;;;;;5056370;28;20519;-27
2021/09/23 06:59:32;;;;;;;8.23;4.43;;;15.50;99.90;;;;;;5048115;28;20537;-27
2021/09/23 07:02:03;;;;;;;5.30;4.50;;;15.40;99.90;;;;;;5061070;28;20445;-25
2021/09/23 07:04:34;;;;;;;5.63;4.80;;;15.40;99.90;;;;;;5059195;28;20492;-26
2021/09/23 07:07:05;;;;;;;9.33;5.30;;;15.40;99.90;;;;;;5058736;28;20479;-25
2021/09/23 07:09:38;;;;;;;6.60;4.67;;;15.50;99.90;;;;;;5062143;28;20586;-25
2021/09/23 07:12:10;;;;;;;6.80;4.90;;;15.40;99.90;;;;;;5044339;28;20457;-25
2021/09/23 07:14:42;;;;;;;7.20;4.63;;;15.30;99.90;;;;;;5043004;28;20437;-26
2021/09/23 07:17:13;;;;;;;7.10;4.47;;;15.30;99.90;;;;;;5057385;28;20526;-26
2021/09/23 07:19:44;;;;;;;6.43;4.70;;;15.20;99.90;;;;;;5062143;28;20522;-25
2021/09/23 07:22:15;;;;;;;7.90;4.40;;;15.10;99.90;;;;;;5061983;28;20452;-26
2021/09/23 07:24:48;;;;;;;6.23;5.10;;;15.10;99.90;;;;;;5053063;28;20461;-26
2021/09/23 07:27:19;;;;;;;6.40;4.87;;;15.10;99.90;;;;;;5042809;28;20484;-26
2021/09/23 07:29:50;;;;;;;6.00;5.00;;;15.10;99.90;;;;;;5058909;28;20453;-26
2021/09/23 07:32:22;;;;;;;6.90;5.30;;;15.00;99.90;;;;;;5043737;28;20453;-26
2021/09/23 07:34:53;;;;;;;6.80;5.00;;;15.00;99.90;;;;;;5042475;28;20760;-26
2021/09/23 07:37:24;;;;;;;9.50;6.80;;;15.00;99.90;;;;;;5041871;28;20572;-26
2021/09/23 07:39:57;;;;;;;6.47;5.33;;;15.00;99.90;;;;;;5042014;28;20449;-26
2021/09/23 07:42:28;;;;;;;10.40;6.23;;;14.90;99.90;;;;;;5041915;28;20518;-26
2021/09/23 07:44:59;;;;;;;7.53;6.07;;;14.90;99.90;;;;;;5045786;28;20568;-26
2021/09/23 07:47:30;;;;;;;10.40;6.60;;;14.80;99.90;;;;;;5053863;28;20464;-25
2021/09/23 07:50:01;;;;;;;7.67;5.93;;;14.70;99.90;;;;;;5046934;28;20818;-26
2021/09/23 07:52:32;;;;;;;8.23;5.60;;;14.70;99.90;;;;;;5050668;28;20522;-26
2021/09/23 07:55:05;;;;;;;9.93;6.50;;;14.70;99.90;;;;;;5061549;28;20449;-26
2021/09/23 07:57:38;;;;;;;7.30;6.23;;;14.70;99.90;;;;;;5047861;28;20492;-26
2021/09/23 08:00:10;;;;;;;7.20;5.43;;;14.60;99.90;;;;;;5046806;28;20449;-26
2021/09/23 08:02:41;;;;;;;9.13;7.03;;;14.70;99.90;;;;;;5054003;28;20478;-30
2021/09/23 08:05:15;;;;;;;9.73;6.50;;;14.60;99.90;;;;;;5066214;28;20450;-26
2021/09/23 08:07:48;;;;;;;6.40;5.80;;;14.60;99.90;;;;;;5053715;28;20479;-26
2021/09/23 08:10:21;;;;;;;7.67;6.20;;;14.50;99.90;;;;;;5046636;28;20473;-26
2021/09/23 08:12:53;;;;;;;11.70;7.13;;;14.50;99.90;;;;;;5046599;28;20467;-26
2021/09/23 08:15:24;;;;;;;7.27;6.57;;;14.40;99.90;;;;;;5046219;28;20488;-26
2021/09/23 08:17:56;;;;;;;9.60;6.67;;;14.40;99.90;;;;;;5059336;28;20525;-27
2021/09/23 08:20:27;;;;;;;9.03;6.43;;;14.30;99.90;;;;;;5050799;28;20463;-26
2021/09/23 08:22:58;;;;;;;7.40;6.50;;;14.30;99.90;;;;;;5050914;28;20484;-26
2021/09/23 08:25:30;;;;;;;9.33;6.47;;;14.40;99.90;;;;;;5045580;28;20488;-26
2021/09/23 08:28:01;;;;;;;7.63;5.50;;;14.30;99.90;;;;;;5045511;28;20501;-26
2021/09/23 08:30:32;;;;;;;8.67;5.70;;;14.20;99.90;;;;;;5046873;28;20504;-26
2021/09/23 08:33:04;;;;;;;8.00;6.20;;;14.20;99.90;;;;;;5046983;28;20473;-26
2021/09/23 08:35:35;;;;;;;8.27;5.90;;;14.30;99.90;;;;;;5045769;28;20594;-26
2021/09/23 08:38:06;;;;;;;7.70;5.50;;;14.30;99.90;;;;;;5053292;28;20959;-27
2021/09/23 08:40:38;;;;;;;7.30;5.33;;;14.20;99.90;;;;;;5062798;28;20462;-26
2021/09/23 08:43:11;;;;;;;10.33;6.00;;;14.20;99.90;;;;;;5063502;28;20467;-26
2021/09/23 08:45:42;;;;;;;10.00;5.50;;;14.10;99.90;;;;;;5048459;28;20457;-26
2021/09/23 08:48:13;;;;;;;7.00;5.07;;;14.10;99.90;;;;;;5058571;28;20449;-26
2021/09/23 08:50:44;;;;;;;8.40;5.87;;;14.10;99.90;;;;;;5049994;28;20512;-26
2021/09/23 08:53:33;;;;;;;5.93;4.93;;;14.10;99.90;;;;;;5045208;28;20449;-26
2021/09/23 08:56:06;;;;;;;6.57;5.80;;;14.10;99.90;;;;;;5045759;28;20458;-26
2021/09/23 08:58:38;;;;;;;9.53;6.53;;;14.00;99.90;;;;;;5065261;28;20448;-26
2021/09/23 09:01:13;;;;;;;6.87;5.53;;;14.00;99.90;;;;;;5063317;28;20444;-26
2021/09/23 09:03:44;;;;;;;9.90;5.63;;;14.10;99.90;;;;;;5047375;28;20881;-26
2021/09/23 09:06:16;;;;;;;10.80;5.57;;;14.10;99.90;;;;;;5061714;28;20525;-26
2021/09/23 09:08:47;;;;;;;8.83;5.47;;;14.00;99.90;;;;;;5065205;28;20440;-26
2021/09/23 09:11:19;;;;;;;9.00;5.90;;;14.00;99.90;;;;;;5053124;28;20852;-26
2021/09/23 09:13:53;;;;;;;7.33;5.70;;;13.90;99.90;;;;;;5064915;28;20468;-26
2021/09/23 09:16:25;;;;;;;6.60;4.93;;;13.90;99.90;;;;;;5054023;28;20562;-25
2021/09/23 09:18:58;;;;;;;8.20;6.23;;;13.90;99.90;;;;;;5045232;28;20457;-27
2021/09/23 09:21:30;;;;;;;6.40;5.60;;;13.90;99.90;;;;;;5044011;28;20457;-26
2021/09/23 09:24:02;;;;;;;6.67;4.73;;;13.80;99.90;;;;;;5044954;28;20499;-26
2021/09/23 09:26:37;;;;;;;7.20;6.10;;;13.80;99.90;;;;;;5044525;28;20484;-26
2021/09/23 09:29:15;;;;;;;6.90;5.77;;;13.80;99.90;;;;;;5054351;28;20463;-26
2021/09/23 09:31:48;;;;;;;9.13;5.70;;;13.80;99.90;;;;;;5063222;28;20460;-26
2021/09/23 09:34:21;;;;;;;6.73;5.20;;;13.80;99.90;;;;;;5057156;28;20444;-26
2021/09/23 09:36:53;;;;;;;6.50;5.33;;;13.70;99.90;;;;;;5064100;28;20580;-26
2021/09/23 09:39:25;;;;;;;5.80;5.20;;;13.70;99.90;;;;;;5064558;28;20494;-26
2021/09/23 09:41:58;;;;;;;6.60;5.47;;;13.60;99.90;;;;;;5052253;28;20455;-26
2021/09/23 09:44:29;;;;;;;7.03;5.03;;;13.70;99.90;;;;;;5044910;28;20479;-26
2021/09/23 09:47:01;;;;;;;9.20;5.47;;;13.60;99.90;;;;;;5053089;28;20448;-26
2021/09/23 09:49:33;;;;;;;9.60;5.40;;;13.60;99.90;;;;;;5064585;28;20463;-26
2021/09/23 09:52:06;;;;;;;7.97;5.37;;;13.50;99.90;;;;;;5046729;28;20480;-26
2021/09/23 09:54:37;;;;;;;6.27;5.10;;;13.60;99.90;;;;;;5044086;28;20449;-26
2021/09/23 09:57:12;;;;;;;5.90;4.70;;;13.60;99.90;;;;;;5055605;28;20553;-26
2021/09/23 09:59:42;;;;;;;6.83;5.50;;;13.50;99.90;;;;;;5044263;28;20449;-26
2021/09/23 10:02:14;;;;;;;6.70;6.03;;;13.50;99.90;;;;;;5052570;28;20499;-26
2021/09/23 10:04:46;;;;;;;6.10;5.03;;;13.60;99.90;;;;;;5044411;28;20891;-26
2021/09/23 10:07:18;;;;;;;8.70;5.63;;;13.60;99.90;;;;;;5061484;28;20468;-26
2021/09/23 10:09:50;;;;;;;8.20;5.20;;;13.70;99.90;;;;;;5058719;28;20453;-26
2021/09/23 10:12:24;;;;;;;6.90;4.90;;;13.70;99.90;;;;;;5048396;28;20542;-26
2021/09/23 10:14:57;;;;;;;6.37;4.77;;;13.70;99.90;;;;;;5058024;28;20521;-26
2021/09/23 10:17:30;;;;;;;6.80;5.30;;;13.80;99.90;;;;;;5061535;28;20952;-26
2021/09/23 10:20:03;;;;;;;9.03;5.20;;;13.90;99.90;;;;;;5044534;28;20449;-26
2021/09/23 10:22:35;;;;;;;6.20;5.00;;;14.00;99.90;;;;;;5053653;28;20444;-26
2021/09/23 10:25:09;;;;;;;5.13;4.60;;;14.00;99.90;;;;;;5061860;28;20454;-26
2021/09/23 10:28:02;;;;;;;5.37;3.93;;;14.00;99.90;;;;;;5063031;28;20445;-26
2021/09/23 10:30:36;;;;;;;5.97;4.73;;;14.10;99.90;;;;;;5062639;28;20769;-26
2021/09/23 10:33:08;;;;;;;5.83;5.17;;;14.10;99.90;;;;;;5062130;28;20474;-26
2021/09/23 10:35:40;;;;;;;6.73;4.40;;;14.20;99.90;;;;;;5061705;28;20429;-26
2021/09/23 10:38:13;;;;;;;5.63;4.23;;;14.20;99.90;;;;;;5054478;28;20517;-26
2021/09/23 10:40:44;;;;;;;4.87;4.20;;;14.30;99.90;;;;;;5059577;28;20522;-26
2021/09/23 10:43:19;;;;;;;7.23;4.43;;;14.30;99.90;;;;;;5042482;28;20979;-26
2021/09/23 10:45:50;;;;;;;6.93;4.60;;;14.40;99.90;;;;;;5043488;28;20492;-26
2021/09/23 10:48:24;;;;;;;5.40;4.90;;;14.50;99.90;;;;;;5050630;28;20472;-26
2021/09/23 10:50:55;;;;;;;6.33;4.50;;;14.50;99.90;;;;;;5049914;28;20442;-27
2021/09/23 10:53:27;;;;;;;5.47;4.40;;;14.50;99.90;;;;;;5042758;28;20449;-26
2021/09/23 10:56:03;;;;;;;5.30;4.57;;;14.50;99.90;;;;;;5055152;28;20887;-26
2021/09/23 10:58:39;;;;;;;6.37;4.60;;;14.60;99.90;;;;;;5049913;28;20535;-26
2021/09/23 11:01:19;;;;;;;4.60;4.07;;;14.60;99.90;;;;;;5051576;28;20490;-26
2021/09/23 11:03:52;;;;;;;7.00;4.67;;;14.60;99.90;;;;;;5049101;28;20453;-26
2021/09/23 11:06:33;;;;;;;4.43;4.03;;;14.60;99.90;;;;;;5053451;28;20483;-26
2021/09/23 11:09:19;;;;;;;8.07;4.17;;;14.70;99.90;;;;;;5062781;28;20433;-26
2021/09/23 11:11:51;;;;;;;5.03;4.57;;;14.70;99.90;;;;;;5057118;28;20441;-26
2021/09/23 11:14:24;;;;;;;5.13;4.20;;;14.80;99.90;;;;;;5042717;28;20523;-26
2021/09/23 11:16:57;;;;;;;5.80;4.03;;;14.70;99.90;;;;;;5041716;28;20537;-26
2021/09/23 11:19:29;;;;;;;4.97;3.60;;;14.80;99.90;;;;;;5057366;28;20492;-26
2021/09/23 11:22:01;;;;;;;3.90;3.33;;;14.80;99.90;;;;;;5061816;28;20796;-26
2021/09/23 11:24:33;;;;;;;3.97;3.60;;;14.80;99.90;;;;;;5051134;28;20531;-26
2021/09/23 11:27:07;;;;;;;5.30;3.43;;;14.80;99.90;;;;;;5062681;28;20440;-26
2021/09/23 11:29:42;;;;;;;3.90;3.40;;;14.90;99.90;;;;;;5048587;28;20433;-26
2021/09/23 11:32:13;;;;;;;3.90;3.50;;;15.00;99.90;;;;;;5041214;28;20873;-26
2021/09/23 11:34:45;;;;;;;5.63;2.67;;;14.90;99.90;;;;;;5058254;28;20452;-26
2021/09/23 11:37:16;;;;;;;3.60;2.87;;;14.90;99.90;;;;;;5049057;28;20448;-26
2021/09/23 11:39:49;;;;;;;3.33;3.03;;;15.00;99.90;;;;;;5062604;28;20462;-26
2021/09/23 11:42:20;;;;;;;2.90;2.63;;;15.10;99.90;;;;;;5062205;28;20466;-26
2021/09/23 11:44:53;;;;;;;3.00;2.73;;;15.10;99.90;;;;;;5062585;28;20447;-26
2021/09/23 11:47:25;;;;;;;3.07;2.80;;;15.10;99.90;;;;;;5041613;28;20520;-26
2021/09/23 11:49:57;;;;;;;2.90;2.30;;;15.10;99.90;;;;;;5062118;28;20453;-26
2021/09/23 11:52:36;;;;;;;2.40;2.13;;;15.20;99.90;;;;;;5061483;28;20508;-26
2021/09/23 11:55:08;;;;;;;3.27;2.77;;;15.20;99.90;;;;;;5048474;28;20547;-26
2021/09/23 11:57:39;;;;;;;3.00;2.40;;;15.20;99.90;;;;;;5045035;28;20446;-27
2021/09/23 12:00:13;;;;;;;2.60;2.40;;;15.20;99.90;;;;;;5060762;28;20448;-26
2021/09/23 12:02:56;;;;;;;2.40;2.20;;;15.20;99.90;;;;;;5060865;28;20459;-26
2021/09/23 12:05:30;;;;;;;3.30;2.27;;;15.10;99.90;;;;;;5062163;28;20472;-26
2021/09/23 12:08:12;;;;;;;2.90;2.67;;;15.10;99.90;;;;;;5061832;28;20924;-26
2021/09/23 12:10:49;;;;;;;4.97;2.87;;;15.10;99.90;;;;;;5052798;28;20475;-26
2021/09/23 12:16:09;;;;;;;2.53;2.33;;;15.20;99.90;;;;;;5039992;28;20485;-26
2021/09/23 12:18:41;;;;;;;2.60;2.23;;;15.20;99.90;;;;;;5050944;28;20508;-26
2021/09/23 12:21:14;;;;;;;2.80;2.50;;;15.20;99.90;;;;;;5041863;28;20499;-26
2021/09/23 12:23:46;;;;;;;2.70;2.50;;;15.20;99.90;;;;;;5041743;28;20460;-26
2021/09/23 12:26:20;;;;;;;4.10;3.70;;;15.30;99.90;;;;;;5047738;28;20471;-26
2021/09/23 12:29:00;;;;;;;3.33;3.00;;;15.30;99.90;;;;;;5062008;28;20452;-26
2021/09/23 12:31:35;;;;;;;3.50;3.20;;;15.20;99.90;;;;;;5062850;28;20464;-26
2021/09/23 12:34:09;;;;;;;3.67;3.37;;;15.30;99.90;;;;;;5064584;28;20479;-26
2021/09/23 12:36:42;;;;;;;4.10;3.10;;;15.30;99.90;;;;;;5045597;28;20473;-26
2021/09/23 12:39:22;;;;;;;3.20;2.90;;;15.20;99.90;;;;;;5045550;28;20503;-26
2021/09/23 12:42:04;;;;;;;3.00;2.80;;;15.20;99.90;;;;;;5057515;28;20452;-26
2021/09/23 12:44:37;;;;;;;2.80;2.60;;;15.30;99.90;;;;;;5057189;28;20454;-26
2021/09/23 12:47:14;;;;;;;2.90;2.60;;;15.30;99.90;;;;;;5044669;28;20453;-26
2021/09/23 12:49:58;;;;;;;5.80;2.97;;;15.30;99.90;;;;;;5058708;28;20452;-26
2021/09/23 12:52:36;;;;;;;2.70;2.50;;;15.30;99.90;;;;;;5065059;28;20800;-26
2021/09/23 12:55:15;;;;;;;3.63;2.93;;;15.30;99.90;;;;;;5064868;28;20522;-26
2021/09/23 12:57:51;;;;;;;3.13;2.73;;;15.30;99.90;;;;;;5064727;28;20478;-26
2021/09/23 13:00:28;;;;;;;3.23;2.80;;;15.30;99.90;;;;;;5057510;28;20838;-26
2021/09/23 13:03:05;;;;;;;2.80;2.60;;;15.30;99.90;;;;;;5044092;28;20908;-26
2021/09/23 13:05:38;;;;;;;2.60;2.40;;;15.30;99.90;;;;;;5049425;28;20448;-26
2021/09/23 13:08:17;;;;;;;3.17;2.87;;;15.40;99.90;;;;;;5044821;28;20449;-26
2021/09/23 13:10:49;;;;;;;3.10;2.80;;;15.30;99.90;;;;;;5052308;28;20452;-26
2021/09/23 13:13:26;;;;;;;2.90;2.60;;;15.30;99.90;;;;;;5064545;28;20433;-25
2021/09/23 13:15:58;;;;;;;2.60;2.40;;;15.30;99.90;;;;;;5044905;28;20913;-26